This is the latest recevied weather packets stored in our database for station/object KC9ZAR-13. If no packets are shown the sender has not sent any weather packets the latest 10 day(s).
| Time | Temp. | Humidity | Pressure | Rain* | Wind** | Luminosity | Snow |
|---|---|---|---|---|---|---|---|
| 1777501204 | 18.33° C | 56% | 1011.6 hPa | 0 mm | - | 0 W/m² | - |
| 1777500305 | 17.78° C | 54% | 1011.6 hPa | 0 mm | - | 0 W/m² | - |
| 1777497904 | 17.78° C | 56% | 1011.4 hPa | 0 mm | - | 0 W/m² | - |
| 1777497305 | 18.89° C | 53% | 1011.4 hPa | 0 mm | - | 0 W/m² | - |
| 1777497005 | 18.89° C | 54% | 1011.3 hPa | 0 mm | - | 0 W/m² | - |
| 1777496705 | 19.44° C | 52% | 1011.3 hPa | 0 mm | - | 0 W/m² | - |
| 1777493704 | 19.44° C | 56% | 1011.6 hPa | 0 mm | - | 0 W/m² | - |
| 1777491306 | 18.33° C | 59% | 1011.8 hPa | 0 mm | - | 0 W/m² | - |
| 1777490705 | 18.33° C | 60% | 1011.8 hPa | 0 mm | - | 0 W/m² | - |
| 1777489806 | 18.89° C | 59% | 1011.7 hPa | 0 mm | - | 0 W/m² | - |
| 1777485905 | 18.33° C | 65% | 1011.5 hPa | 0 mm | - | 0 W/m² | - |
| 1777485606 | 18.89° C | 63% | 1011.5 hPa | 0 mm | - | 0 W/m² | - |
| 1777484705 | 18.33° C | 67% | 1011.5 hPa | 0 mm | - | 0 W/m² | - |
| 1777484106 | 18.33° C | 67% | 1011.3 hPa | 0 mm | - | 0 W/m² | - |
| 1777481705 | 17.78° C | 70% | 1011.7 hPa | 0 mm | - | 0 W/m² | - |
| 1777481406 | 17.78° C | 72% | 1011.6 hPa | 0 mm | - | 0 W/m² | - |
| 1777480806 | 17.78° C | 71% | 1011.4 hPa | 0 mm | - | 0 W/m² | - |
| 1777480505 | 17.78° C | 70% | 1011.4 hPa | 0 mm | - | 0 W/m² | - |
| 1777480206 | 17.78° C | 73% | 1011.5 hPa | 0 mm | - | 0 W/m² | - |
| 1777479306 | 17.78° C | 74% | 1011.2 hPa | 0 mm | - | 0 W/m² | - |
| 1777476006 | 16.67° C | 82% | 1011.1 hPa | 0 mm | - | 0 W/m² | - |
| 1777475405 | 16.11° C | 85% | 1011.1 hPa | 0 mm | - | 0 W/m² | - |
| 1777474505 | 15.56° C | 89% | 1011 hPa | 0 mm | - | 0 W/m² | - |
| 1777474205 | 15.56° C | 91% | 1010.8 hPa | 0 mm | - | 0 W/m² | - |
| 1777473905 | 15° C | 91% | 1010.7 hPa | 0 mm | - | 0 W/m² | - |
* Rain latest hour (hover to see other rain measurements)
** Current wind speed in m/s (hover to see current wind gust speed)